Time;durP1;ratioP1;P1;durP2;ratioP2;P2;SDS_P1;SDS_P2;PMS_P1;PMS_P2;Temp;Humidity;BMP_temperature;BMP_pressure;BME280_temperature;BME280_humidity;BME280_pressure;Samples;Min_cycle;Max_cycle;Signal;HPM_P1;HPM_P2
2021/11/04 00:01:15;;;;;;;14.03;7.17;;;;;;;;;;4943675;28;20329;-74
2021/11/04 00:03:42;;;;;;;14.73;6.70;;;;;;;;;;4943015;28;20232;-75
2021/11/04 00:06:09;;;;;;;17.30;7.13;;;;;;;;;;4937851;28;20573;-75
2021/11/04 00:08:36;;;;;;;13.53;7.03;;;;;;;;;;4936536;28;20917;-75
2021/11/04 00:11:12;;;;;;;15.97;7.23;;;;;;;;;;4936438;28;20327;-76
2021/11/04 00:13:40;;;;;;;14.73;7.03;;;;;;;;;;4936133;28;20210;-75
2021/11/04 00:16:09;;;;;;;15.83;7.17;;;;;;;;;;4936980;28;20215;-75
2021/11/04 00:18:37;;;;;;;13.60;6.60;;;;;;;;;;4936638;28;20207;-75
2021/11/04 00:21:05;;;;;;;14.57;6.77;;;;;;;;;;4934498;28;20276;-74
2021/11/04 00:23:32;;;;;;;14.93;6.53;;;;;;;;;;4941555;28;20298;-75
2021/11/04 00:25:59;;;;;;;18.13;7.03;;;;;;;;;;4946429;28;20294;-75
2021/11/04 00:28:28;;;;;;;17.27;7.23;;;;;;;;;;4940646;28;20221;-75
2021/11/04 00:30:55;;;;;;;15.17;7.10;;;;;;;;;;4941807;28;20297;-74
2021/11/04 00:33:24;;;;;;;15.70;7.07;;;;;;;;;;4941661;28;20736;-75
2021/11/04 00:35:51;;;;;;;16.10;7.47;;;;;;;;;;4940230;28;20668;-75
2021/11/04 00:38:19;;;;;;;20.60;7.40;;;;;;;;;;4941692;28;20220;-76
2021/11/04 00:40:49;;;;;;;13.77;6.43;;;;;;;;;;4940181;28;20289;-76
2021/11/04 00:43:16;;;;;;;17.90;5.80;;;;;;;;;;4941454;28;20217;-75
2021/11/04 00:45:44;;;;;;;15.13;5.77;;;;;;;;;;4938979;28;20240;-75
2021/11/04 00:48:11;;;;;;;14.07;6.47;;;;;;;;;;4940656;28;20233;-75
2021/11/04 00:50:39;;;;;;;19.13;6.03;;;;;;;;;;4939991;28;20306;-75
2021/11/04 00:53:06;;;;;;;15.83;7.27;;;;;;;;;;4939869;28;20321;-75
2021/11/04 00:55:33;;;;;;;18.10;7.80;;;;;;;;;;4943566;28;20748;-75
2021/11/04 00:58:00;;;;;;;15.73;7.77;;;;;;;;;;4941773;28;20212;-75
2021/11/04 01:00:27;;;;;;;17.77;8.73;;;;;;;;;;4940386;28;20202;-76
2021/11/04 01:02:56;;;;;;;15.70;7.63;;;;;;;;;;4939790;28;20324;-75
2021/11/04 01:05:23;;;;;;;21.03;7.77;;;;;;;;;;4941290;28;20241;-76
2021/11/04 01:07:50;;;;;;;17.83;7.83;;;;;;;;;;4939387;28;20206;-76
2021/11/04 01:10:18;;;;;;;21.07;8.07;;;;;;;;;;4937402;28;20211;-75
2021/11/04 01:12:46;;;;;;;17.67;8.60;;;;;;;;;;4937959;28;20222;-76
2021/11/04 01:15:13;;;;;;;17.57;8.53;;;;;;;;;;4941471;28;20204;-76
2021/11/04 01:17:40;;;;;;;17.30;7.73;;;;;;;;;;4939916;28;20207;-74
2021/11/04 01:20:10;;;;;;;23.23;8.47;;;;;;;;;;4936186;28;20497;-75
2021/11/04 01:22:37;;;;;;;16.33;7.87;;;;;;;;;;4937927;28;20316;-75
2021/11/04 01:25:04;;;;;;;18.80;8.50;;;;;;;;;;4941826;28;20273;-75
2021/11/04 01:27:32;;;;;;;21.60;8.37;;;;;;;;;;4940097;28;20297;-75
2021/11/04 01:29:59;;;;;;;18.83;9.20;;;;;;;;;;4938359;28;20214;-75
2021/11/04 01:32:27;;;;;;;18.17;8.77;;;;;;;;;;4938812;28;20226;-75
2021/11/04 01:34:57;;;;;;;19.10;8.77;;;;;;;;;;4939046;28;20206;-75
2021/11/04 01:37:25;;;;;;;17.60;7.87;;;;;;;;;;4936730;28;20199;-75
2021/11/04 01:39:52;;;;;;;20.93;9.23;;;;;;;;;;4938796;28;20202;-75
2021/11/04 01:42:20;;;;;;;22.63;10.90;;;;;;;;;;4935958;28;20233;-75
2021/11/04 01:44:47;;;;;;;19.57;9.90;;;;;;;;;;4939024;28;20222;-75
2021/11/04 01:47:15;;;;;;;20.80;9.07;;;;;;;;;;4937035;28;20384;-75
2021/11/04 01:49:42;;;;;;;19.27;8.03;;;;;;;;;;4938558;28;20211;-75
2021/11/04 01:52:10;;;;;;;23.57;8.97;;;;;;;;;;4938094;28;20227;-75
2021/11/04 01:54:38;;;;;;;20.97;8.70;;;;;;;;;;4938010;28;20224;-75
2021/11/04 01:57:06;;;;;;;21.37;8.83;;;;;;;;;;4936974;28;20209;-76
2021/11/04 01:59:33;;;;;;;20.67;9.47;;;;;;;;;;4937386;28;20663;-75
2021/11/04 02:02:04;;;;;;;21.47;9.97;;;;;;;;;;4937253;28;20435;-75
2021/11/04 02:04:35;;;;;;;25.53;10.20;;;;;;;;;;4935899;28;20772;-75
2021/11/04 02:07:04;;;;;;;16.50;8.57;;;;;;;;;;4939137;28;20305;-75
2021/11/04 02:09:36;;;;;;;18.90;8.40;;;;;;;;;;4938619;28;20410;-75
2021/11/04 02:12:08;;;;;;;15.30;8.07;;;;;;;;;;4936301;28;20312;-75
2021/11/04 02:14:40;;;;;;;17.83;8.47;;;;;;;;;;4941569;28;20568;-75
2021/11/04 02:17:08;;;;;;;19.03;8.53;;;;;;;;;;4936729;28;20234;-76
2021/11/04 02:19:40;;;;;;;16.87;8.07;;;;;;;;;;4937108;28;20217;-77
2021/11/04 02:22:09;;;;;;;16.93;8.07;;;;;;;;;;4937936;28;20368;-74
2021/11/04 02:24:39;;;;;;;17.37;7.73;;;;;;;;;;4936715;28;20225;-75
2021/11/04 02:27:09;;;;;;;15.37;7.77;;;;;;;;;;4950003;23;20213;-89
2021/11/04 02:29:38;;;;;;;18.27;8.17;;;;;;;;;;4968935;28;20213;-88
2021/11/04 02:32:07;;;;;;;18.63;8.73;;;;;;;;;;4969160;28;20232;-88
2021/11/04 02:34:35;;;;;;;18.47;8.40;;;;;;;;;;4965522;28;20244;-88
2021/11/04 02:37:03;;;;;;;21.17;8.40;;;;;;;;;;4962592;28;20241;-88
2021/11/04 07:24:55;;;;;;;31.83;12.10;;;;;;;;;;4974505;23;20689;-78
2021/11/04 07:27:30;;;;;;;26.83;12.30;;;;;;;;;;4970962;28;20622;-77
2021/11/04 07:29:59;;;;;;;34.13;12.43;;;;;;;;;;4970580;28;20340;-77
2021/11/04 07:32:27;;;;;;;26.73;11.57;;;;;;;;;;4970188;28;20755;-77
2021/11/04 07:34:55;;;;;;;26.70;12.17;;;;;;;;;;4972125;28;20213;-76
2021/11/04 07:37:26;;;;;;;29.27;12.87;;;;;;;;;;4967654;28;20288;-76
2021/11/04 07:40:00;;;;;;;31.53;12.30;;;;;;;;;;4966393;28;20198;-75
2021/11/04 07:42:27;;;;;;;31.20;12.37;;;;;;;;;;4971512;28;20770;-76
2021/11/04 07:44:56;;;;;;;32.13;12.77;;;;;;;;;;4977965;28;20319;-75
2021/11/04 07:47:24;;;;;;;33.40;13.23;;;;;;;;;;4978519;28;20256;-78
2021/11/04 07:49:54;;;;;;;30.83;13.33;;;;;;;;;;4977327;28;20201;-77
2021/11/04 07:52:21;;;;;;;26.87;11.07;;;;;;;;;;4977493;28;20220;-76
2021/11/04 07:54:48;;;;;;;23.80;9.90;;;;;;;;;;4972180;28;20282;-75
2021/11/04 07:57:17;;;;;;;29.80;12.50;;;;;;;;;;4975964;28;20699;-76
2021/11/04 07:59:44;;;;;;;21.00;9.13;;;;;;;;;;4973842;28;20296;-76
2021/11/04 08:02:11;;;;;;;28.97;11.73;;;;;;;;;;4968618;28;20336;-76
2021/11/04 08:04:38;;;;;;;30.30;12.43;;;;;;;;;;4966867;28;20232;-75
2021/11/04 08:07:06;;;;;;;30.20;11.33;;;;;;;;;;4964728;28;21472;-75
2021/11/04 08:09:33;;;;;;;29.00;10.50;;;;;;;;;;4964932;28;20331;-76
2021/11/04 08:12:01;;;;;;;29.70;12.07;;;;;;;;;;4970413;28;20312;-76
2021/11/04 08:14:29;;;;;;;28.10;10.83;;;;;;;;;;4966183;28;20241;-76
2021/11/04 08:16:56;;;;;;;28.87;11.10;;;;;;;;;;4962110;28;20212;-76
2021/11/04 08:19:24;;;;;;;28.93;12.30;;;;;;;;;;4972395;28;20232;-75
2021/11/04 08:21:51;;;;;;;28.73;11.10;;;;;;;;;;4972839;28;20643;-75
2021/11/04 08:24:18;;;;;;;31.37;10.87;;;;;;;;;;4963098;28;20220;-75
2021/11/04 08:26:45;;;;;;;27.50;10.77;;;;;;;;;;4965013;28;20915;-75
2021/11/04 08:29:13;;;;;;;28.73;11.07;;;;;;;;;;4973140;28;20300;-76
2021/11/04 08:31:41;;;;;;;31.20;12.03;;;;;;;;;;4966503;28;20691;-75
2021/11/04 08:34:08;;;;;;;29.00;11.27;;;;;;;;;;4975861;28;20301;-74
2021/11/04 08:36:35;;;;;;;24.20;10.63;;;;;;;;;;4974453;28;20297;-74
2021/11/04 08:39:03;;;;;;;25.33;10.17;;;;;;;;;;4979940;28;20284;-75
2021/11/04 08:41:31;;;;;;;29.97;10.90;;;;;;;;;;4974231;28;20344;-74
2021/11/04 08:43:58;;;;;;;25.17;9.80;;;;;;;;;;4970656;28;20206;-75
2021/11/04 08:46:25;;;;;;;28.57;10.63;;;;;;;;;;4970291;28;20509;-75
2021/11/04 08:48:54;;;;;;;28.50;11.47;;;;;;;;;;4974684;28;20202;-76
2021/11/04 08:51:21;;;;;;;29.37;12.73;;;;;;;;;;4974429;28;20655;-77
2021/11/04 08:53:48;;;;;;;29.57;11.90;;;;;;;;;;4974574;28;20292;-76
2021/11/04 08:56:15;;;;;;;28.27;12.07;;;;;;;;;;4976189;28;20198;-77
2021/11/04 08:58:42;;;;;;;26.80;10.23;;;;;;;;;;4977775;28;20296;-76
2021/11/04 09:01:12;;;;;;;27.57;10.87;;;;;;;;;;4982516;28;20738;-76
2021/11/04 09:03:39;;;;;;;23.07;9.67;;;;;;;;;;4978513;28;20206;-77
2021/11/04 09:06:11;;;;;;;26.07;10.00;;;;;;;;;;4982192;28;20289;-77
2021/11/04 09:08:38;;;;;;;32.07;11.63;;;;;;;;;;4984061;28;20307;-77
2021/11/04 09:11:06;;;;;;;31.03;11.33;;;;;;;;;;4981103;28;20229;-75
2021/11/04 09:13:33;;;;;;;25.73;10.43;;;;;;;;;;4979462;28;20288;-77
2021/11/04 09:16:00;;;;;;;23.97;10.27;;;;;;;;;;4977317;28;20205;-77
2021/11/04 09:18:27;;;;;;;27.27;11.47;;;;;;;;;;4975768;28;20292;-77
2021/11/04 09:20:55;;;;;;;28.80;13.37;;;;;;;;;;4970785;28;20552;-76
2021/11/04 09:23:23;;;;;;;25.87;10.80;;;;;;;;;;4973739;28;20205;-75
2021/11/04 09:25:51;;;;;;;26.37;12.83;;;;;;;;;;4973808;28;20587;-77
2021/11/04 09:28:18;;;;;;;25.80;10.67;;;;;;;;;;4984586;28;20296;-76
2021/11/04 09:30:45;;;;;;;22.97;10.60;;;;;;;;;;4976691;28;20291;-76
2021/11/04 09:33:14;;;;;;;22.60;9.60;;;;;;;;;;4976821;28;20302;-75
2021/11/04 09:35:41;;;;;;;21.00;9.20;;;;;;;;;;4975411;28;20206;-76
2021/11/04 09:38:08;;;;;;;21.90;10.03;;;;;;;;;;4981121;28;20243;-77
2021/11/04 09:40:37;;;;;;;20.70;10.70;;;;;;;;;;4976223;28;20687;-77
2021/11/04 09:43:04;;;;;;;20.97;9.73;;;;;;;;;;4980447;28;20606;-77
2021/11/04 09:45:33;;;;;;;25.67;10.70;;;;;;;;;;4980600;28;20229;-77
2021/11/04 09:48:00;;;;;;;20.13;9.77;;;;;;;;;;4978829;28;20212;-77
2021/11/04 09:50:27;;;;;;;23.03;9.20;;;;;;;;;;4978191;28;20289;-76
2021/11/04 09:52:55;;;;;;;26.87;11.47;;;;;;;;;;4977476;28;20413;-76
2021/11/04 09:55:24;;;;;;;24.33;10.57;;;;;;;;;;4982618;28;20205;-77
2021/11/04 09:57:54;;;;;;;23.73;8.90;;;;;;;;;;4984091;28;20308;-77
2021/11/04 10:00:21;;;;;;;25.30;10.37;;;;;;;;;;4981648;28;20405;-77
2021/11/04 10:03:00;;;;;;;22.33;9.70;;;;;;;;;;4976426;28;20308;-76
2021/11/04 10:05:28;;;;;;;23.77;10.30;;;;;;;;;;4978077;28;20235;-75
2021/11/04 10:07:55;;;;;;;30.57;10.70;;;;;;;;;;4976178;28;20267;-76
2021/11/04 10:10:22;;;;;;;23.67;10.20;;;;;;;;;;4974721;28;20237;-75
2021/11/04 10:13:00;;;;;;;29.73;10.97;;;;;;;;;;4975513;28;20770;-76
2021/11/04 10:15:28;;;;;;;23.50;10.47;;;;;;;;;;4972936;28;20977;-77
2021/11/04 10:18:11;;;;;;;26.47;10.10;;;;;;;;;;4978092;28;20663;-77
2021/11/04 10:20:38;;;;;;;23.10;10.00;;;;;;;;;;4978374;28;20221;-75
2021/11/04 10:23:06;;;;;;;28.63;11.00;;;;;;;;;;4974911;28;20308;-77
2021/11/04 10:25:34;;;;;;;23.97;10.90;;;;;;;;;;4979273;28;20308;-75
2021/11/04 10:28:21;;;;;;;34.40;12.20;;;;;;;;;;4979896;28;20228;-77
2021/11/04 10:30:48;;;;;;;26.40;12.00;;;;;;;;;;4977103;28;20692;-74
2021/11/04 10:33:20;;;;;;;27.30;11.37;;;;;;;;;;4978473;28;20221;-77
2021/11/04 10:35:51;;;;;;;30.03;11.77;;;;;;;;;;4981990;28;20202;-77
2021/11/04 10:38:18;;;;;;;31.13;11.80;;;;;;;;;;4976680;28;20303;-77
2021/11/04 10:40:46;;;;;;;30.90;12.50;;;;;;;;;;4977733;28;20208;-76
2021/11/04 10:43:14;;;;;;;27.00;10.43;;;;;;;;;;4985934;28;20292;-77
2021/11/04 10:45:41;;;;;;;28.77;12.30;;;;;;;;;;4977876;28;20321;-77
2021/11/04 10:48:26;;;;;;;23.47;9.70;;;;;;;;;;4983630;28;20209;-75
2021/11/04 10:50:54;;;;;;;30.63;11.20;;;;;;;;;;4975733;28;20230;-76
2021/11/04 10:53:22;;;;;;;32.83;12.63;;;;;;;;;;4976733;28;20680;-76
2021/11/04 10:55:51;;;;;;;28.67;11.83;;;;;;;;;;4976195;28;20300;-76
2021/11/04 10:58:33;;;;;;;27.40;12.10;;;;;;;;;;4981739;28;20225;-76
2021/11/04 11:01:01;;;;;;;30.67;11.10;;;;;;;;;;4983375;28;20291;-79
2021/11/04 11:03:29;;;;;;;31.90;12.37;;;;;;;;;;4977034;28;20667;-76
2021/11/04 11:05:58;;;;;;;29.60;11.70;;;;;;;;;;4983361;28;20319;-76
2021/11/04 11:08:29;;;;;;;36.67;12.37;;;;;;;;;;4980981;28;20212;-76
2021/11/04 11:10:57;;;;;;;32.80;13.20;;;;;;;;;;4975304;28;20256;-77
2021/11/04 11:13:24;;;;;;;29.33;11.93;;;;;;;;;;4975417;28;20206;-77
2021/11/04 11:15:55;;;;;;;30.80;11.93;;;;;;;;;;4977902;28;20271;-75
2021/11/04 11:18:25;;;;;;;27.50;10.40;;;;;;;;;;4975634;28;20300;-77
2021/11/04 11:20:53;;;;;;;25.67;10.40;;;;;;;;;;4973542;28;20241;-76
2021/11/04 11:23:22;;;;;;;30.43;11.73;;;;;;;;;;4973647;28;20222;-77
2021/11/04 11:25:50;;;;;;;30.20;11.43;;;;;;;;;;4979924;28;20240;-77
2021/11/04 11:28:18;;;;;;;29.93;11.10;;;;;;;;;;4972417;28;20265;-76
2021/11/04 11:31:00;;;;;;;28.53;10.53;;;;;;;;;;4974427;28;20300;-76
2021/11/04 11:33:28;;;;;;;32.63;11.20;;;;;;;;;;4979424;28;20300;-77
2021/11/04 11:36:19;;;;;;;28.60;10.67;;;;;;;;;;4977543;28;20252;-77
2021/11/04 11:39:06;;;;;;;26.73;8.63;;;;;;;;;;4959028;28;20233;-76
2021/11/04 11:41:35;;;;;;;29.50;11.03;;;;;;;;;;4974002;28;20648;-76
2021/11/04 11:44:05;;;;;;;29.43;11.17;;;;;;;;;;4978819;28;20209;-75
2021/11/04 11:46:32;;;;;;;35.30;12.13;;;;;;;;;;4975191;28;20720;-76
2021/11/04 11:49:14;;;;;;;35.70;11.80;;;;;;;;;;4976253;28;20255;-76
2021/11/04 11:51:45;;;;;;;35.67;11.87;;;;;;;;;;4971223;28;20308;-76
2021/11/04 11:54:12;;;;;;;39.97;13.77;;;;;;;;;;4977960;28;20702;-77
2021/11/04 11:56:39;;;;;;;42.70;17.73;;;;;;;;;;4974920;28;20297;-77
2021/11/04 11:59:28;;;;;;;36.83;13.43;;;;;;;;;;4974545;28;20284;-77
2021/11/04 12:01:55;;;;;;;33.60;12.90;;;;;;;;;;4973652;28;20234;-77
2021/11/04 12:04:26;;;;;;;34.67;13.40;;;;;;;;;;4975741;28;20492;-77
2021/11/04 12:06:59;;;;;;;38.67;13.77;;;;;;;;;;4975480;28;20274;-77
2021/11/04 12:09:47;;;;;;;36.17;13.10;;;;;;;;;;4982302;28;20220;-77
2021/11/04 12:12:33;;;;;;;39.53;13.30;;;;;;;;;;4969022;28;20230;-77
2021/11/04 12:15:04;;;;;;;42.90;14.23;;;;;;;;;;4972813;28;20240;-77
2021/11/04 12:17:31;;;;;;;48.70;15.03;;;;;;;;;;4973755;28;20214;-77
2021/11/04 12:20:00;;;;;;;40.37;14.63;;;;;;;;;;4977647;28;20297;-77
2021/11/04 12:22:29;;;;;;;42.80;14.80;;;;;;;;;;4975674;28;20284;-76
2021/11/04 12:24:58;;;;;;;36.83;13.13;;;;;;;;;;4979419;28;20252;-77
2021/11/04 12:27:26;;;;;;;41.07;14.17;;;;;;;;;;4979436;28;20763;-77
2021/11/04 12:29:55;;;;;;;40.10;14.07;;;;;;;;;;4976011;28;20288;-77
2021/11/04 12:32:23;;;;;;;38.47;13.43;;;;;;;;;;4979587;28;20605;-76
2021/11/04 12:34:57;;;;;;;33.57;13.07;;;;;;;;;;4978618;28;20296;-76
2021/11/04 12:37:27;;;;;;;34.97;12.70;;;;;;;;;;4979727;28;20327;-76
2021/11/04 12:39:56;;;;;;;42.70;14.47;;;;;;;;;;4980845;28;20205;-77
2021/11/04 12:42:24;;;;;;;38.90;14.43;;;;;;;;;;4988030;28;20275;-77
2021/11/04 12:44:51;;;;;;;33.07;12.90;;;;;;;;;;4979610;28;20234;-76
2021/11/04 12:47:19;;;;;;;36.87;12.33;;;;;;;;;;4981094;28;20312;-76
2021/11/04 12:49:46;;;;;;;42.27;14.47;;;;;;;;;;4976352;28;20260;-76
2021/11/04 12:52:15;;;;;;;35.70;13.50;;;;;;;;;;4978291;28;20324;-76
2021/11/04 12:54:46;;;;;;;35.93;12.53;;;;;;;;;;4978580;28;20300;-75
2021/11/04 12:57:16;;;;;;;31.03;12.40;;;;;;;;;;4979124;28;20201;-76
2021/11/04 12:59:45;;;;;;;36.60;12.93;;;;;;;;;;4981739;28;20209;-77
2021/11/04 13:02:13;;;;;;;32.97;12.57;;;;;;;;;;5032544;23;20329;-75
2021/11/04 13:04:41;;;;;;;31.30;12.43;;;;;;;;;;4956790;28;20218;-76
2021/11/04 13:07:09;;;;;;;35.77;13.97;;;;;;;;;;4956707;28;20257;-75
2021/11/04 13:09:44;;;;;;;37.37;15.17;;;;;;;;;;4958668;28;20590;-77
2021/11/04 13:12:12;;;;;;;35.60;12.87;;;;;;;;;;4957119;28;20229;-75
2021/11/04 13:14:58;;;;;;;35.27;13.00;;;;;;;;;;4958106;28;20246;-76
2021/11/04 13:17:33;;;;;;;36.37;13.90;;;;;;;;;;4965074;28;20218;-77
2021/11/04 13:20:01;;;;;;;36.50;13.30;;;;;;;;;;4958558;28;20209;-77
2021/11/04 13:22:29;;;;;;;36.67;13.90;;;;;;;;;;4963881;28;20317;-77
2021/11/04 13:24:56;;;;;;;35.03;13.20;;;;;;;;;;4962437;28;20677;-76
2021/11/04 13:27:24;;;;;;;33.80;13.53;;;;;;;;;;4959952;28;20724;-76
2021/11/04 13:29:52;;;;;;;34.93;12.80;;;;;;;;;;4955257;28;20214;-75
2021/11/04 13:32:20;;;;;;;38.87;14.33;;;;;;;;;;4954283;28;20322;-76
2021/11/04 13:34:48;;;;;;;35.10;13.23;;;;;;;;;;4955457;28;20289;-75
2021/11/04 13:37:19;;;;;;;36.40;13.20;;;;;;;;;;4955293;28;20761;-75
2021/11/04 13:39:46;;;;;;;33.63;12.97;;;;;;;;;;4956358;28;20222;-76
2021/11/04 13:42:23;;;;;;;35.33;13.73;;;;;;;;;;4955042;28;20659;-76
2021/11/04 13:44:50;;;;;;;38.17;14.10;;;;;;;;;;4955651;28;20305;-76
2021/11/04 13:47:32;;;;;;;41.60;15.47;;;;;;;;;;4956486;28;20249;-76
2021/11/04 13:50:01;;;;;;;40.13;17.50;;;;;;;;;;4957525;28;20210;-77
2021/11/04 13:52:28;;;;;;;37.00;13.80;;;;;;;;;;4958505;28;20308;-77
2021/11/04 13:54:56;;;;;;;28.07;12.67;;;;;;;;;;4958137;28;20678;-77
2021/11/04 13:57:27;;;;;;;53.13;20.47;;;;;;;;;;4958476;28;20268;-77
2021/11/04 13:59:56;;;;;;;48.23;18.33;;;;;;;;;;4954755;28;20567;-77
2021/11/04 14:02:25;;;;;;;47.23;20.77;;;;;;;;;;4958012;28;20320;-76
2021/11/04 14:04:53;;;;;;;40.73;18.30;;;;;;;;;;4955415;28;20301;-76
2021/11/04 14:07:26;;;;;;;36.73;16.10;;;;;;;;;;4954262;28;20324;-77
2021/11/04 14:09:57;;;;;;;35.80;15.40;;;;;;;;;;4967596;28;20233;-77
2021/11/04 14:12:28;;;;;;;40.30;17.00;;;;;;;;;;4961463;28;20269;-75
2021/11/04 14:14:56;;;;;;;38.83;16.67;;;;;;;;;;4955346;28;20299;-75
2021/11/04 14:17:27;;;;;;;42.03;15.90;;;;;;;;;;4960356;28;20216;-76
2021/11/04 14:19:54;;;;;;;35.53;15.17;;;;;;;;;;4959109;28;20734;-76
2021/11/04 14:22:29;;;;;;;34.90;15.03;;;;;;;;;;4957471;28;20309;-76
2021/11/04 14:24:56;;;;;;;36.43;15.23;;;;;;;;;;4959293;28;20289;-76
2021/11/04 14:27:30;;;;;;;43.17;17.10;;;;;;;;;;4974227;23;20229;-87
2021/11/04 14:29:57;;;;;;;36.47;14.57;;;;;;;;;;4982513;28;20674;-85
2021/11/04 14:32:25;;;;;;;36.30;13.93;;;;;;;;;;4983242;28;20225;-87
2021/11/04 14:34:55;;;;;;;33.07;13.17;;;;;;;;;;4982225;28;20205;-86
2021/11/04 14:37:22;;;;;;;34.80;14.10;;;;;;;;;;4987156;28;20209;-86
2021/11/04 14:46:10;;;;;;;28.73;12.47;;;;;;;;;;4972535;28;20619;-87
2021/11/04 14:51:20;;;;;;;31.67;12.97;;;;;;;;;;4979517;28;20217;-86
2021/11/04 14:53:47;;;;;;;33.47;13.73;;;;;;;;;;4988930;28;20217;-85
2021/11/04 14:56:20;;;;;;;33.97;14.27;;;;;;;;;;4999555;28;20242;-85
2021/11/04 14:58:48;;;;;;;32.83;13.37;;;;;;;;;;4988127;28;20293;-86
2021/11/04 15:01:17;;;;;;;34.57;13.03;;;;;;;;;;5002139;28;20224;-85
2021/11/04 15:03:44;;;;;;;33.07;14.30;;;;;;;;;;4996835;28;20217;-87
2021/11/04 15:06:13;;;;;;;30.40;13.07;;;;;;;;;;4996517;28;20257;-84
2021/11/04 15:08:41;;;;;;;28.73;12.63;;;;;;;;;;4991370;28;20228;-86
2021/11/04 15:11:08;;;;;;;31.93;13.40;;;;;;;;;;4985236;28;20228;-87
2021/11/04 15:13:36;;;;;;;63.23;21.50;;;;;;;;;;4983874;28;20216;-86
2021/11/04 15:16:04;;;;;;;28.77;13.00;;;;;;;;;;4985292;28;20317;-88
2021/11/04 15:18:35;;;;;;;31.90;12.13;;;;;;;;;;4986811;28;20265;-84
2021/11/04 15:21:02;;;;;;;28.30;11.57;;;;;;;;;;4989033;28;20958;-87
2021/11/04 15:23:30;;;;;;;28.10;12.37;;;;;;;;;;4983104;28;20220;-87
2021/11/04 15:26:07;;;;;;;28.57;12.47;;;;;;;;;;4994895;28;20228;-87
2021/11/04 15:28:56;;;;;;;30.20;12.20;;;;;;;;;;4991150;28;20236;-87
2021/11/04 19:25:03;;;;;;;10.27;5.97;;;;;;;;;;4989760;23;20236;-75
2021/11/04 19:27:31;;;;;;;15.47;7.03;;;;;;;;;;4966600;28;20256;-75
2021/11/04 19:29:58;;;;;;;33.93;17.30;;;;;;;;;;4972873;28;20583;-76
2021/11/04 19:32:25;;;;;;;21.53;10.83;;;;;;;;;;4973147;28;20642;-76
2021/11/04 19:34:53;;;;;;;43.97;18.07;;;;;;;;;;4970843;28;20701;-74
2021/11/04 19:37:20;;;;;;;23.57;10.00;;;;;;;;;;4975856;28;20293;-76
2021/11/04 19:39:47;;;;;;;24.57;10.73;;;;;;;;;;4962434;28;20208;-76
2021/11/04 19:42:16;;;;;;;51.27;22.60;;;;;;;;;;4966995;28;20363;-78
2021/11/04 19:44:43;;;;;;;75.30;29.27;;;;;;;;;;4966793;28;20296;-76
2021/11/04 19:47:10;;;;;;;85.87;32.10;;;;;;;;;;4965142;28;20291;-77
2021/11/04 19:49:39;;;;;;;102.07;39.67;;;;;;;;;;4976344;28;20296;-76
2021/11/04 19:52:07;;;;;;;68.17;26.47;;;;;;;;;;4971958;28;20258;-76
2021/11/04 19:54:35;;;;;;;20.67;9.67;;;;;;;;;;4976801;28;20205;-77
2021/11/04 19:57:02;;;;;;;13.87;7.27;;;;;;;;;;4966062;28;20592;-76
2021/11/04 19:59:31;;;;;;;13.50;6.63;;;;;;;;;;4963940;28;20206;-77
2021/11/04 20:01:58;;;;;;;13.40;7.43;;;;;;;;;;4969025;28;20226;-76
2021/11/04 20:04:25;;;;;;;13.77;7.13;;;;;;;;;;4972988;28;20297;-77
2021/11/04 20:06:53;;;;;;;15.20;7.90;;;;;;;;;;4976936;28;20280;-78
2021/11/04 20:09:21;;;;;;;13.50;7.60;;;;;;;;;;4973343;28;20233;-78
2021/11/04 20:11:48;;;;;;;18.67;9.30;;;;;;;;;;4970197;28;20260;-78
2021/11/04 20:14:17;;;;;;;16.43;9.90;;;;;;;;;;4978449;28;20753;-77
2021/11/04 20:16:46;;;;;;;28.87;14.03;;;;;;;;;;4978461;28;20206;-77
2021/11/04 20:19:13;;;;;;;22.37;12.63;;;;;;;;;;4980035;28;20635;-77
2021/11/04 20:21:41;;;;;;;16.77;9.93;;;;;;;;;;4974354;28;20789;-77
2021/11/04 20:24:08;;;;;;;22.70;11.23;;;;;;;;;;4968617;28;20316;-77
2021/11/04 20:26:35;;;;;;;17.70;9.83;;;;;;;;;;4961938;28;20292;-77
2021/11/04 20:29:04;;;;;;;20.27;9.90;;;;;;;;;;4959319;28;20352;-77
2021/11/04 20:31:31;;;;;;;34.60;17.93;;;;;;;;;;4973712;28;20248;-77
2021/11/04 20:34:00;;;;;;;22.33;12.80;;;;;;;;;;4972856;28;20209;-75
2021/11/04 20:36:28;;;;;;;20.47;11.57;;;;;;;;;;4964827;28;20205;-75
2021/11/04 20:38:55;;;;;;;23.17;11.80;;;;;;;;;;4962089;28;20221;-75
2021/11/04 20:41:22;;;;;;;19.63;10.83;;;;;;;;;;4966768;28;20324;-75
2021/11/04 20:43:50;;;;;;;23.33;13.40;;;;;;;;;;4964655;28;21721;-76
2021/11/04 20:46:17;;;;;;;24.37;13.30;;;;;;;;;;4962223;28;20214;-75
2021/11/04 20:48:45;;;;;;;33.93;19.30;;;;;;;;;;4971837;28;20316;-76
2021/11/04 20:51:13;;;;;;;23.03;12.57;;;;;;;;;;4976150;28;20311;-74
2021/11/04 20:53:40;;;;;;;24.63;13.70;;;;;;;;;;4972263;28;20208;-75
2021/11/04 20:56:08;;;;;;;24.50;13.70;;;;;;;;;;4975162;28;20322;-75
2021/11/04 20:58:35;;;;;;;30.43;17.77;;;;;;;;;;4982020;28;20280;-75
2021/11/04 21:01:02;;;;;;;20.53;12.30;;;;;;;;;;4974182;28;20244;-76
2021/11/04 21:03:32;;;;;;;22.83;13.63;;;;;;;;;;4972681;28;20228;-75
2021/11/04 21:05:59;;;;;;;23.77;12.23;;;;;;;;;;4972127;28;20209;-75
2021/11/04 21:08:28;;;;;;;21.80;11.50;;;;;;;;;;4968900;28;20320;-76
2021/11/04 21:10:55;;;;;;;30.23;17.03;;;;;;;;;;4972356;28;20228;-76
2021/11/04 21:13:22;;;;;;;24.03;13.47;;;;;;;;;;4970910;28;20291;-76
2021/11/04 21:15:49;;;;;;;26.77;15.53;;;;;;;;;;4975799;28;20280;-75
2021/11/04 21:18:17;;;;;;;26.17;15.23;;;;;;;;;;4975495;28;20288;-75
2021/11/04 21:20:45;;;;;;;30.57;15.00;;;;;;;;;;4971625;28;20201;-75
2021/11/04 21:23:13;;;;;;;24.73;12.53;;;;;;;;;;4976389;28;20237;-75
2021/11/04 21:25:42;;;;;;;23.07;12.53;;;;;;;;;;4975499;28;20240;-75
2021/11/04 21:28:09;;;;;;;25.83;14.43;;;;;;;;;;4975774;28;21492;-76
2021/11/04 21:30:37;;;;;;;27.53;14.43;;;;;;;;;;4972555;28;20289;-74
2021/11/04 21:33:05;;;;;;;26.07;13.00;;;;;;;;;;4979297;28;20312;-77
2021/11/04 21:35:32;;;;;;;26.33;13.13;;;;;;;;;;4976358;28;20268;-75
2021/11/04 21:38:02;;;;;;;29.33;13.53;;;;;;;;;;4979864;28;20248;-75
2021/11/04 21:40:29;;;;;;;27.10;14.00;;;;;;;;;;4982137;28;20684;-75
2021/11/04 21:43:00;;;;;;;30.17;13.37;;;;;;;;;;4984161;28;20694;-75
2021/11/04 21:45:28;;;;;;;31.37;13.67;;;;;;;;;;4975999;28;20260;-75
2021/11/04 21:47:55;;;;;;;26.03;13.43;;;;;;;;;;4974740;28;20285;-75
2021/11/04 21:50:23;;;;;;;28.77;14.03;;;;;;;;;;4981784;28;20342;-75
2021/11/04 21:52:50;;;;;;;27.60;13.20;;;;;;;;;;4976172;28;20703;-75
2021/11/04 21:55:18;;;;;;;31.30;15.80;;;;;;;;;;4974261;28;20292;-74
2021/11/04 21:57:46;;;;;;;28.10;14.23;;;;;;;;;;4977240;28;20212;-75
2021/11/04 22:00:16;;;;;;;27.53;14.23;;;;;;;;;;4976440;28;20293;-74
2021/11/04 22:02:44;;;;;;;41.13;20.00;;;;;;;;;;4978226;28;20300;-76
2021/11/04 22:05:12;;;;;;;31.13;16.03;;;;;;;;;;4976198;28;20660;-75
2021/11/04 22:07:39;;;;;;;29.23;13.60;;;;;;;;;;4974608;28;20202;-75
2021/11/04 22:10:07;;;;;;;25.03;12.93;;;;;;;;;;4986036;28;20708;-74
2021/11/04 22:12:34;;;;;;;31.73;13.50;;;;;;;;;;4978120;28;20253;-74
2021/11/04 22:15:03;;;;;;;24.30;13.03;;;;;;;;;;4977653;28;20236;-74
2021/11/04 22:17:31;;;;;;;33.07;15.20;;;;;;;;;;4972493;28;20205;-74
2021/11/04 22:19:59;;;;;;;33.47;15.80;;;;;;;;;;4986013;28;20695;-74
2021/11/04 22:22:27;;;;;;;42.83;19.77;;;;;;;;;;4979275;28;20264;-73
2021/11/04 22:24:54;;;;;;;43.80;18.70;;;;;;;;;;4976182;28;20233;-74
2021/11/04 22:27:22;;;;;;;30.33;15.40;;;;;;;;;;4980001;28;20347;-73
2021/11/04 22:29:53;;;;;;;30.30;14.60;;;;;;;;;;4982712;28;20695;-74
2021/11/04 22:32:22;;;;;;;33.07;15.70;;;;;;;;;;4982245;28;20323;-75
2021/11/04 22:34:51;;;;;;;33.00;15.83;;;;;;;;;;4980248;28;20289;-74
2021/11/04 22:37:19;;;;;;;30.90;15.13;;;;;;;;;;4974414;28;20308;-73
2021/11/04 22:39:47;;;;;;;27.87;14.27;;;;;;;;;;4973810;28;20293;-74
2021/11/04 22:42:14;;;;;;;37.33;16.43;;;;;;;;;;4986413;28;20725;-74
2021/11/04 22:44:42;;;;;;;34.10;16.47;;;;;;;;;;4975892;28;20300;-74
2021/11/04 22:47:09;;;;;;;31.87;15.63;;;;;;;;;;4975596;28;20244;-75
2021/11/04 22:49:37;;;;;;;35.83;16.17;;;;;;;;;;4977937;28;20222;-73
2021/11/04 22:52:06;;;;;;;33.90;16.03;;;;;;;;;;4973610;28;20236;-75
2021/11/04 22:54:33;;;;;;;31.20;15.40;;;;;;;;;;4978662;28;20301;-74
2021/11/04 22:57:00;;;;;;;32.03;15.13;;;;;;;;;;4978989;28;20281;-75
2021/11/04 22:59:28;;;;;;;37.30;17.33;;;;;;;;;;4978028;28;20284;-75
2021/11/04 23:01:55;;;;;;;35.50;15.97;;;;;;;;;;4981065;28;20666;-75
2021/11/04 23:04:23;;;;;;;35.63;16.50;;;;;;;;;;4975298;28;20268;-75
2021/11/04 23:06:50;;;;;;;35.37;15.37;;;;;;;;;;4977474;28;20229;-75
2021/11/04 23:09:18;;;;;;;35.10;15.60;;;;;;;;;;4974133;28;20308;-75
2021/11/04 23:11:46;;;;;;;31.90;15.47;;;;;;;;;;4973365;28;20667;-75
2021/11/04 23:14:13;;;;;;;30.90;15.60;;;;;;;;;;4971643;28;20295;-75
2021/11/04 23:16:40;;;;;;;34.50;16.13;;;;;;;;;;4980095;28;20304;-75
2021/11/04 23:19:08;;;;;;;34.93;15.60;;;;;;;;;;4971836;28;20244;-74